Sill Hill (79, 626) Station Data

Red Flag Warning: No
Fire Weather Zone: 258
SDGE Region: Mountain Empire
Lat/Lon: 32.954/-116.643

Observations

Time Wind Speed/Gust Temp(F) RH Fuel Moist Fuel Temp(F) Dewpt(F) Tmax(F) Tmin(F) Accum Precip 10-min Precip SL Press(mb)
3/29 8:00am 157 3 G 6 60° 16% - - 13° 64° 56.9° - - 1016.0
3/29 7:50am 155 4 G 6 59° 16% - - 13° 64° 56.9° - - 1016.0
3/29 7:40am 171 4 G 7 58° 16% - - 13° 64° 56.9° - - 1016.0
3/29 7:30am 180 5 G 8 59° 16% - - 13° 64° 56.9° - - 1016.0
3/29 7:20am 176 4 G 5 59° 15% - - 12° 64° 56.9° - - 1016.0
3/29 7:10am 199 2 G 5 59° 15% - - 12° 64° 56.9° - - 1015.0
3/29 7:00am 158 2 G 4 59° 15% - - 12° 64° 56.9° - - 1015.0
3/29 6:50am 203 2 G 4 59° 15% - - 12° 64° 56.9° - - 1015.0
3/29 6:40am 122 1 G 3 59° 15% - - 12° 64° 56.9° - - 1016.0
3/29 6:30am 125 2 G 3 58° 16% - - 12° 64° 56.9° - - 1016.0
3/29 6:20am 201 3 G 5 59° 15% - - 12° 64° 56.9° - - 1015.0
3/29 6:10am 236 3 G 4 60° 15% - - 11° 64° 56.9° - - 1015.0
3/29 6:00am 228 3 G 5 59° 15% - - 12° 64° 56.9° - - 1015.0
3/29 5:50am 245 5 G 8 59° 15% - - 12° 64° 56.9° - - 1015.0
3/29 5:40am 184 6 G 12 59° 16% - - 13° 64° 56.9° - - 1015.0
3/29 5:30am 118 8 G 14 61° 14% - - 12° 64° 56.9° - - 1014.0
3/29 5:20am 43 9 G 16 61° 14% - - 12° 64° 56.9° - - 1014.0
3/29 5:10am 82 4 G 12 61° 14% - - 12° 64° 56.9° - - 1015.0
3/29 5:00am 8 6 G 19 62° 13% - - 11° 64° 56.9° - - 1014.0
3/29 4:50am 113 7 G 17 60° 15% - - 12° 62.9° 56.9° - - 1015.0
3/29 4:40am 154 5 G 9 59° 16% - - 12° 61.1° 56.9° - - 1015.0
3/29 4:30am 163 6 G 9 59° 16% - - 12° 61.1° 56.9° - - 1015.0
3/29 4:20am 144 7 G 10 59° 16% - - 13° 61.1° 56.9° - - 1015.0
3/29 4:10am 143 8 G 10 58° 17% - - 14° 61.1° 56.9° - - 1015.0
3/29 4:00am 172 7 G 11 58° 17% - - 13° 61.1° 56.9° - - 1015.0
3/29 3:50am 164 6 G 9 58° 17% - - 14° 61.1° 56.9° - - 1015.0
3/29 3:40am 171 5 G 9 58° 18% - - 14° 61.1° 56.9° - - 1015.0
3/29 3:30am 162 5 G 9 58° 18% - - 15° 61.1° 56.9° - - 1015.0
3/29 3:20am 153 5 G 11 59° 18% - - 15° 61.1° 56.9° - - 1015.0
3/29 3:10am 157 7 G 12 59° 17% - - 15° 61.1° 56.9° - - 1015.0
3/29 3:00am 154 7 G 10 59° 17% - - 14° 61.1° 56.9° - - 1015.0
3/29 2:50am 152 6 G 10 59° 16% - - 14° 61.1° 56.9° - - 1015.0
3/29 2:40am 161 7 G 11 60° 16% - - 13° 61.1° 56.9° - - 1015.0
3/29 2:30am 152 7 G 11 60° 16% - - 13° 61° 56.9° - - 1015.0
3/29 2:20am 149 7 G 12 59° 16% - - 13° 60.3° 56.9° - - 1015.0
3/29 2:10am 226 3 G 6 58° 17% - - 14° 60.3° 56.9° - - 1015.0
3/29 2:00am 135 7 G 11 58° 18% - - 15° 60.3° 56.9° - - 1015.0
3/29 1:50am 23 6 G 11 58° 17% - - 13° 60.3° 57.1° - - 1015.0
3/29 1:40am 300 3 G 6 59° 18% - - 15° 60.3° 57.5° - - 1015.0
3/29 1:30am 199 4 G 8 59° 18% - - 15° 60° 57.5° - - 1015.0
3/29 1:20am 159 5 G 11 59° 17% - - 15° 60° 57.5° - - 1015.0
3/29 1:10am 155 4 G 8 59° 18% - - 16° 60° 57.5° - - 1016.0
3/29 1:00am 156 6 G 9 59° 20% - - 17° 59.7° 57.5° - - 1016.0
3/29 12:50am 155 6 G 9 58° 20% - - 17° 59.7° 57.5° - - 1016.0
3/29 12:40am 152 6 G 9 59° 18% - - 16° 59.7° 57.6° - - 1016.0
3/29 12:30am 176 2 G 4 59° 17% - - 14° 59.6° 57.6° - - 1016.0
3/29 12:20am 35 1 G 4 58° 17% - - 14° 59.6° 57.6° - - 1016.0
3/29 12:10am 329 3 G 7 59° 17% - - 14° 59.6° 57.8° - - 1016.0
3/29 12:00am 143 5 G 11 59° 18% - - 15° 64.3° 43.5° - - 1016.0
3/28 11:50pm 119 7 G 13 60° 16% - - 13° 64.3° 43.5° - - 1016.0
3/28 11:40pm 122 7 G 12 59° 17% - - 15° 64.3° 43.5° - - 1016.0
3/28 11:30pm 173 3 G 6 59° 19% - - 16° 64.3° 43.5° - - 1016.0
3/28 11:20pm 114 7 G 12 59° 18% - - 15° 64.3° 43.5° - - 1016.0
3/28 11:10pm 105 7 G 10 59° 22% - - 21° 64.3° 43.5° - - 1016.0
3/28 11:00pm 99 8 G 10 60° 23% - - 22° 64.3° 43.5° - - 1016.0
3/28 10:50pm 104 7 G 8 60° 23% - - 22° 64.3° 43.5° - - 1016.0
3/28 10:40pm 101 9 G 11 59° 22% - - 21° 64.3° 43.5° - - 1016.0
3/28 10:30pm 92 8 G 11 59° 20% - - 18° 64.3° 43.5° - - 1016.0
3/28 10:20pm 93 9 G 10 59° 18% - - 16° 64.3° 43.5° - - 1016.0
3/28 10:10pm 91 7 G 10 59° 18% - - 15° 64.3° 43.5° - - 1016.0
3/28 10:00pm 92 9 G 10 58° 20% - - 17° 64.3° 43.5° - - 1016.0
3/28 9:50pm 90 9 G 11 59° 20% - - 18° 64.3° 43.5° - - 1015.0
3/28 9:40pm 92 10 G 12 58° 21% - - 19° 64.3° 43.5° - - 1015.0
3/28 9:30pm 96 8 G 12 58° 24% - - 21° 64.3° 43.5° - - 1015.0
3/28 9:20pm 88 8 G 10 58° 33% - - 28° 64.3° 43.5° - - 1016.0
3/28 9:10pm 94 8 G 10 57° 35% - - 30° 64.3° 43.5° - - 1016.0
3/28 9:00pm 86 8 G 10 58° 39% - - 33° 64.3° 43.5° - - 1015.0
3/28 8:50pm 85 8 G 11 56° 47% - - 36° 64.3° 43.5° - - 1016.0
3/28 8:40pm 84 10 G 11 55° 50% - - 37° 64.3° 43.5° - - 1016.0
3/28 8:30pm 88 10 G 12 56° 51% - - 38° 64.3° 43.5° - - 1016.0
3/28 8:20pm 86 9 G 11 56° 51% - - 39° 64.3° 43.5° - - 1015.0
3/28 8:10pm 84 10 G 11 56° 53% - - 39° 64.3° 43.5° - - 1015.0
3/28 8:00pm 86 7 G 10 56° 53% - - 39° 64.3° 43.5° - - 1015.0
3/28 7:50pm 94 9 G 12 56° 55% - - 40° 64.3° 43.5° - - 1015.0
3/28 7:40pm 91 9 G 11 55° 58% - - 40° 64.3° 43.5° - - 1015.0
3/28 7:30pm 82 7 G 8 54° 61% - - 41° 64.3° 43.5° - - 1016.0
3/28 7:20pm 202 2 G 7 55° 59% - - 41° 64.3° 43.5° - - 1015.0
3/28 7:10pm 49 0 G 2 56° 58% - - 41° 64.3° 43.5° - - 1015.0
3/28 7:00pm 180 2 G 4 56° 58% - - 42° 64.3° 43.5° - - 1015.0
3/28 6:50pm 272 2 G 5 57° 56% - - 42° 64.3° 43.5° - - 1015.0
3/28 6:40pm 280 4 G 6 58° 53% - - 41° 64.3° 43.5° - - 1015.0
3/28 6:30pm 305 5 G 7 58° 52% - - 41° 64.3° 43.5° - - 1014.0
3/28 6:20pm 293 5 G 8 59° 52% - - 41° 64.3° 43.5° - - 1014.0
3/28 6:10pm 304 6 G 9 59° 51% - - 41° 64.3° 43.5° - - 1014.0
3/28 6:00pm 308 6 G 11 59° 51% - - 41° 64.3° 43.5° - - 1014.0
3/28 5:50pm 293 7 G 10 59° 52% - - 42° 64.3° 43.5° - - 1014.0
3/28 5:40pm 288 6 G 9 60° 52% - - 43° 64.3° 43.5° - - 1013.0
3/28 5:30pm 254 8 G 15 60° 52% - - 43° 64.3° 43.5° - - 1013.0
3/28 5:20pm 255 7 G 12 61° 50% - - 42° 64.3° 43.5° - - 1013.0
3/28 5:10pm 250 7 G 12 61° 48% - - 41° 64.3° 43.5° - - 1013.0
3/28 5:00pm 244 8 G 13 62° 45% - - 40° 64.3° 43.5° - - 1013.0
3/28 4:50pm 238 8 G 13 62° 41% - - 39° 64.3° 43.5° - - 1012.0
3/28 4:40pm 231 8 G 15 62° 39% - - 37° 64.3° 43.5° - - 1012.0
3/28 4:30pm 293 7 G 12 63° 36% - - 36° 64.3° 43.5° - - 1012.0
3/28 4:20pm 307 7 G 13 63° 36% - - 35° 64.3° 43.5° - - 1012.0
3/28 4:10pm 294 6 G 9 63° 35% - - 35° 64.3° 43.5° - - 1012.0
3/28 4:00pm 251 6 G 12 63° 35% - - 35° 64.3° 43.5° - - 1012.0
3/28 3:50pm 229 7 G 13 63° 34% - - 35° 64.3° 43.5° - - 1012.0
3/28 3:40pm 233 7 G 13 63° 34% - - 34° 64° 43.5° - - 1013.0
3/28 3:30pm 249 5 G 14 62° 34% - - 33° 64° 43.5° - - 1013.0
3/28 3:20pm 230 8 G 13 62° 34% - - 33° 64° 43.5° - - 1013.0
3/28 3:10pm 236 7 G 12 62° 33% - - 32° 64° 43.5° - - 1013.0
3/28 3:00pm 236 5 G 12 62° 32% - - 32° 64° 43.5° - - 1013.0
3/28 2:50pm 248 7 G 12 62° 32% - - 32° 64° 43.5° - - 1013.0
3/28 2:40pm 213 6 G 14 62° 32% - - 32° 63° 43.5° - - 1014.0
3/28 2:30pm 247 7 G 13 62° 32% - - 31° 63° 43.5° - - 1014.0
3/28 2:20pm 245 5 G 11 61° 32% - - 31° 63° 43.5° - - 1014.0
3/28 2:10pm 241 7 G 12 61° 32% - - 31° 62° 43.5° - - 1014.0
3/28 2:00pm 249 7 G 13 61° 33% - - 32° 62° 43.5° - - 1014.0
3/28 1:50pm 253 7 G 13 61° 33% - - 31° 61.6° 43.5° - - 1015.0
3/28 1:40pm 248 8 G 15 60° 34% - - 32° 61.6° 43.5° - - 1015.0
3/28 1:30pm 239 9 G 15 60° 34% - - 32° 61.6° 43.5° - - 1015.0
3/28 1:20pm 258 6 G 11 60° 34% - - 31° 61.1° 43.5° - - 1015.0
3/28 1:10pm 254 7 G 13 60° 33% - - 31° 61.1° 43.5° - - 1015.0
3/28 1:00pm 264 6 G 11 59° 33% - - 31° 60.4° 43.5° - - 1015.0
3/28 12:50pm 250 6 G 11 59° 33% - - 30° 60.2° 43.5° - - 1015.0
3/28 12:40pm 254 7 G 13 59° 34% - - 31° 60.2° 43.5° - - 1015.0
3/28 12:30pm 257 6 G 13 59° 35% - - 31° 59.9° 43.5° - - 1015.0
3/28 12:20pm 241 8 G 14 59° 34% - - 31° 59.9° 43.5° - - 1015.0
3/28 12:10pm 249 8 G 11 58° 34% - - 30° 59.4° 43.5° - - 1015.0
3/28 12:00pm 251 8 G 12 59° 35% - - 31° 59.4° 43.5° - - 1015.0
3/28 11:50am 232 6 G 10 58° 36% - - 31° 59.1° 43.5° - - 1015.0
3/28 11:40am 249 8 G 13 58° 37% - - 31° 58.5° 43.5° - - 1016.0
3/28 11:30am 242 7 G 12 58° 38% - - 32° 58.5° 43.5° - - 1016.0
3/28 11:20am 239 7 G 10 57° 38% - - 32° 58.5° 43.5° - - 1016.0
3/28 11:10am 245 6 G 11 58° 35% - - 30° 58.3° 43.5° - - 1016.0
3/28 11:00am 248 6 G 10 57° 34% - - 29° 57.8° 43.5° - - 1016.0
3/28 10:50am 245 7 G 10 57° 33% - - 28° 57.8° 43.5° - - 1016.0
3/28 10:40am 237 5 G 8 57° 31% - - 27° 57.8° 43.5° - - 1016.0
3/28 10:30am 235 5 G 9 56° 31% - - 26° 57.7° 43.5° - - 1016.0
3/28 10:20am 230 6 G 9 56° 36% - - 29° 57.7° 43.5° - - 1016.0
3/28 10:10am 245 6 G 9 56° 38% - - 30° 57.7° 43.5° - - 1016.0
3/28 10:00am 230 5 G 7 55° 39% - - 30° 57.7° 43.5° - - 1016.0
3/28 9:50am 238 6 G 9 55° 38% - - 29° 57.7° 43.5° - - 1016.0
3/28 9:40am 258 5 G 9 56° 31% - - 26° 57.7° 43.5° - - 1016.0
3/28 9:30am 257 3 G 6 56° 27% - - 22° 57.3° 43.5° - - 1016.0
3/28 9:20am 233 2 G 5 56° 27% - - 23° 56.7° 43.5° - - 1015.0
3/28 9:10am 216 2 G 3 56° 27% - - 22° 56.4° 43.5° - - 1015.0
3/28 9:00am 220 4 G 5 55° 31% - - 24° 55.9° 43.5° - - 1016.0
3/28 8:50am 225 1 G 4 55° 31% - - 25° 55.9° 43.5° - - 1016.0
3/28 8:40am 194 3 G 9 55° 26% - - 21° 55.9° 43.5° - - 1015.0
3/28 8:30am 198 2 G 9 55° 25% - - 19° 55.2° 43.5° - - 1015.0
3/28 8:20am 172 3 G 4 53° 29% - - 21° 54.2° 43.5° - - 1016.0
3/28 8:10am 241 3 G 5 52° 28% - - 20° 53.2° 43.5° - - 1016.0
3/28 8:00am 228 2 G 5 51° 29% - - 20° 52.9° 43.5° - - 1016.0
3/28 7:50am 185 3 G 5 50° 33% - - 22° 52.9° 43.5° - - 1016.0
3/28 7:40am 161 4 G 7 49° 36% - - 23° 52.9° 43.5° - - 1016.0
3/28 7:30am 165 4 G 6 48° 40% - - 25° 52.9° 43.5° - - 1016.0
3/28 7:20am 180 4 G 6 48° 43% - - 26° 52.9° 43.5° - - 1016.0
3/28 7:10am 168 7 G 12 46° 51% - - 29° 52.9° 43.5° - - 1017.0
3/28 7:00am 183 8 G 13 44° 53% - - 28° 52.9° 43.5° - - 1017.0
3/28 6:50am 304 3 G 8 50° 30% - - 20° 52.9° 46° - - 1015.0
3/28 6:40am 339 3 G 5 49° 31% - - 20° 52.9° 46° - - 1015.0
3/28 6:30am 280 2 G 5 50° 31% - - 21° 52.9° 46° - - 1015.0
3/28 6:20am 273 4 G 7 51° 29% - - 19° 52.9° 46° - - 1015.0
3/28 6:10am 112 3 G 9 51° 26% - - 17° 52.9° 46° - - 1015.0
3/28 6:00am 120 5 G 11 51° 27% - - 18° 52.9° 46° - - 1015.0